createdAt,value
2022-11-25T00:00:27.963Z,98132.94
2022-11-25T00:04:06.036Z,98130.97
2022-11-25T00:07:29.771Z,98124.41
2022-11-25T00:10:55.470Z,98117.50
2022-11-25T00:14:16.696Z,98122.13
2022-11-25T00:17:31.885Z,98115.88
2022-11-25T00:20:57.168Z,98117.50
2022-11-25T00:24:20.342Z,98117.03
2022-11-25T00:27:57.156Z,98112.41
2022-11-25T00:31:14.385Z,98119.69
2022-11-25T00:34:22.167Z,98124.28
2022-11-25T00:37:34.637Z,98120.25
2022-11-25T00:40:42.966Z,98123.59
2022-11-25T00:44:03.356Z,98122.78
2022-11-25T00:47:12.916Z,98118.75
2022-11-25T00:50:17.640Z,98110.91
2022-11-25T00:53:23.458Z,98121.19
2022-11-25T00:56:33.245Z,98117.28
2022-11-25T00:59:41.774Z,98122.09
2022-11-25T01:02:52.140Z,98120.72
2022-11-25T01:06:09.544Z,98126.97
2022-11-25T01:09:18.657Z,98127.66
2022-11-25T01:12:24.165Z,98128.22
2022-11-25T01:15:46.812Z,98121.09
2022-11-25T01:18:54.080Z,98125.34
2022-11-25T01:22:11.791Z,98117.38
2022-11-25T01:25:14.856Z,98123.50
2022-11-25T01:28:17.704Z,98115.41
2022-11-25T01:31:23.084Z,98124.75
2022-11-25T01:34:31.918Z,98114.97
2022-11-25T01:37:35.919Z,98129.81
2022-11-25T01:40:38.602Z,98129.16
2022-11-25T01:43:42.087Z,98124.75
2022-11-25T01:46:59.426Z,98113.72
2022-11-25T01:50:04.945Z,98116.78
2022-11-25T01:53:12.476Z,98119.59
2022-11-25T01:56:15.711Z,98113.69
2022-11-25T01:59:18.853Z,98108.94
2022-11-25T02:02:22.108Z,98120.28
2022-11-25T02:05:33.972Z,98123.66
2022-11-25T02:08:39.545Z,98128.22
2022-11-25T02:11:45.008Z,98116.91
2022-11-25T02:14:49.687Z,98133.41
2022-11-25T02:17:52.457Z,98126.16
2022-11-25T02:20:55.359Z,98134.72
2022-11-25T02:24:06.265Z,98115.81
2022-11-25T02:27:10.556Z,98119.28
2022-11-25T02:30:13.742Z,98117.66
2022-11-25T02:33:17.820Z,98127.25
2022-11-25T02:36:23.704Z,98123.19
2022-11-25T02:39:26.816Z,98122.38
2022-11-25T02:42:31.473Z,98119.63
2022-11-25T02:45:43.336Z,98121.63
2022-11-25T02:49:07.944Z,98115.16
2022-11-25T02:52:09.210Z,98104.78
2022-11-25T02:55:11.884Z,98111.47
2022-11-25T02:58:16.600Z,98110.31
2022-11-25T03:01:21.090Z,98111.81
2022-11-25T03:04:23.887Z,98105.34
2022-11-25T03:07:26.557Z,98098.44
2022-11-25T03:10:29.617Z,98099.50
2022-11-25T03:13:33.753Z,98107.69
2022-11-25T03:16:36.477Z,98099.50
2022-11-25T03:19:39.223Z,98095.47
2022-11-25T03:22:42.256Z,98089.94
2022-11-25T03:25:45.027Z,98096.84
2022-11-25T03:28:49.040Z,98098.56
2022-11-25T03:31:51.967Z,98087.97
2022-11-25T03:34:54.749Z,98091.53
2022-11-25T03:37:57.449Z,98092.59
2022-11-25T03:41:00.156Z,98096.63
2022-11-25T03:44:04.175Z,98086.47
2022-11-25T03:47:07.083Z,98093.75
2022-11-25T03:50:11.979Z,98095.56
2022-11-25T03:53:14.639Z,98085.69
2022-11-25T03:56:17.304Z,98086.03
2022-11-25T03:59:21.308Z,98096.63
2022-11-25T04:02:24.068Z,98080.16
2022-11-25T04:05:26.708Z,98092.56
2022-11-25T04:08:29.316Z,98091.75
2022-11-25T04:11:45.921Z,98094.53
2022-11-25T04:14:49.894Z,98094.28
2022-11-25T04:17:52.561Z,98080.56
2022-11-25T04:20:55.291Z,98086.44
2022-11-25T04:23:57.933Z,98083.78
2022-11-25T04:27:00.631Z,98087.91
2022-11-25T04:30:05.242Z,98083.63
2022-11-25T04:33:08.047Z,98082.31
2022-11-25T04:36:10.971Z,98079.28
2022-11-25T04:39:13.640Z,98083.97
2022-11-25T04:42:34.671Z,98073.44
2022-11-25T04:46:06.473Z,98074.59
2022-11-25T04:49:01.752Z,98069.91
2022-11-25T04:52:04.527Z,98067.03
2022-11-25T04:55:08.080Z,98068.16
2022-11-25T04:58:11.594Z,98069.78
2022-11-25T05:01:14.677Z,98076.13
2022-11-25T05:04:17.279Z,98079.97
2022-11-25T05:07:21.382Z,98084.16
2022-11-25T05:10:24.291Z,98101.47
2022-11-25T05:13:27.133Z,98097.09
2022-11-25T05:16:31.188Z,98083.97
2022-11-25T05:19:35.977Z,98075.03
2022-11-25T05:22:42.261Z,98077.31
2022-11-25T05:25:46.256Z,98087.81
2022-11-25T05:28:51.011Z,98097.72
2022-11-25T05:31:58.104Z,98093.44
2022-11-25T05:35:01.787Z,98091.84
2022-11-25T05:38:05.097Z,98096.91
2022-11-25T05:41:11.313Z,98109.63
2022-11-25T05:44:22.493Z,98112.97
2022-11-25T05:47:28.926Z,98110.13
2022-11-25T05:50:33.325Z,98111.88
2022-11-25T05:53:39.038Z,98112.84
2022-11-25T05:56:43.656Z,98118.72
2022-11-25T05:59:47.950Z,98126.28
2022-11-25T06:02:56.555Z,98126.06
2022-11-25T06:06:03.444Z,98126.19
2022-11-25T06:09:11.549Z,98132.53
2022-11-25T06:12:19.859Z,98130.59
2022-11-25T06:15:27.478Z,98135.47
2022-11-25T06:18:36.977Z,98132.59
2022-11-25T06:21:45.988Z,98130.38
2022-11-25T06:25:01.851Z,98139.97
2022-11-25T06:28:13.314Z,98139.66
2022-11-25T06:31:30.663Z,98151.53
2022-11-25T06:34:47.058Z,98153.94
2022-11-25T06:37:55.974Z,98154.28
2022-11-25T06:41:04.923Z,98154.41
2022-11-25T06:44:30.538Z,98162.13
2022-11-25T06:47:37.099Z,98159.25
2022-11-25T06:50:50.718Z,98160.72
2022-11-25T06:53:58.238Z,98153.94
2022-11-25T06:57:05.495Z,98165.25
2022-11-25T07:00:14.306Z,98167.78
2022-11-25T07:03:21.771Z,98173.53
2022-11-25T07:06:32.605Z,98174.56
2022-11-25T07:09:43.288Z,98173.19
2022-11-25T07:12:54.040Z,98173.50
2022-11-25T07:16:05.644Z,98179.13
2022-11-25T07:19:19.333Z,98172.88
2022-11-25T07:22:36.169Z,98176.31
2022-11-25T07:25:48.457Z,98180.56
2022-11-25T07:28:56.015Z,98185.19
2022-11-25T07:32:08.885Z,98179.63
2022-11-25T07:35:18.736Z,98186.41
2022-11-25T07:38:31.370Z,98187.66
2022-11-25T07:41:43.779Z,98186.00
2022-11-25T07:44:59.856Z,98198.09
2022-11-25T07:48:10.996Z,98194.25
2022-11-25T07:51:24.535Z,98190.06
2022-11-25T07:54:34.735Z,98204.41
2022-11-25T07:57:50.056Z,98209.63
2022-11-25T08:00:57.571Z,98213.66
2022-11-25T08:04:07.839Z,98217.22
2022-11-25T08:07:15.674Z,98233.03
2022-11-25T08:10:24.936Z,98222.81
2022-11-25T08:13:33.596Z,98219.75
2022-11-25T08:16:42.162Z,98225.25
2022-11-25T08:19:50.841Z,98218.88
2022-11-25T08:23:01.613Z,98208.09
2022-11-25T08:26:13.475Z,98207.06
2022-11-25T08:29:25.516Z,98192.00
2022-11-25T08:32:35.175Z,98196.91
2022-11-25T08:35:44.711Z,98205.06
2022-11-25T08:38:56.546Z,98210.78
2022-11-25T08:42:14.439Z,98227.09
2022-11-25T08:45:21.940Z,98223.13
2022-11-25T08:48:29.857Z,98210.13
2022-11-25T08:51:42.689Z,98208.91
2022-11-25T08:54:56.754Z,98219.97
2022-11-25T08:58:10.539Z,98223.81
2022-11-25T09:01:21.291Z,98227.66
2022-11-25T09:04:29.671Z,98227.94
2022-11-25T09:07:40.008Z,98232.22
2022-11-25T09:10:55.008Z,98230.97
2022-11-25T09:14:11.466Z,98229.84
2022-11-25T09:17:19.757Z,98234.31
2022-11-25T09:20:30.946Z,98231.78
2022-11-25T09:23:39.361Z,98249.00
2022-11-25T09:26:50.072Z,98251.22
2022-11-25T09:30:02.196Z,98249.13
2022-11-25T09:33:16.019Z,98251.25
2022-11-25T09:36:29.354Z,98259.31
2022-11-25T09:39:38.075Z,98250.78
2022-11-25T09:43:09.024Z,98251.88
2022-11-25T09:46:46.897Z,98246.88
2022-11-25T09:50:13.966Z,98247.28
2022-11-25T09:53:36.824Z,98249.50
2022-11-25T09:56:53.103Z,98247.19
2022-11-25T10:00:11.288Z,98239.50
2022-11-25T10:03:36.860Z,98227.84
2022-11-25T10:06:55.364Z,98240.19
2022-11-25T10:10:09.669Z,98247.44
2022-11-25T10:13:26.844Z,98244.75
2022-11-25T10:16:38.473Z,98253.84
2022-11-25T10:20:11.531Z,98251.97
2022-11-25T10:23:28.697Z,98258.91
2022-11-25T10:26:50.509Z,98254.38
2022-11-25T10:30:05.936Z,98255.94
2022-11-25T10:33:26.838Z,98257.88
2022-11-25T10:36:39.943Z,98263.00
2022-11-25T10:39:47.425Z,98259.81
2022-11-25T10:42:53.712Z,98265.72
2022-11-25T10:46:18.485Z,98259.28
2022-11-25T10:56:52.589Z,98261.16
2022-11-25T11:00:17.012Z,98265.44
2022-11-25T11:03:32.455Z,98265.97
2022-11-25T11:10:42.802Z,98279.63
2022-11-25T11:13:52.178Z,98286.03
2022-11-25T11:17:42.156Z,98305.31
2022-11-25T11:21:14.073Z,98303.25
2022-11-25T11:24:44.291Z,98308.88
2022-11-25T11:28:10.801Z,98314.78
2022-11-25T11:31:34.014Z,98322.00
2022-11-25T11:39:12.663Z,98328.63
2022-11-25T11:46:27.737Z,98343.25
2022-11-25T11:53:53.464Z,98339.47
2022-11-25T11:57:19.361Z,98343.72
2022-11-25T12:01:02.678Z,98340.94
2022-11-25T12:04:28.243Z,98332.06
2022-11-25T12:07:47.596Z,98340.03
2022-11-25T12:11:03.378Z,98339.25
2022-11-25T12:14:15.359Z,98341.66
2022-11-25T12:17:28.641Z,98342.69
2022-11-25T12:20:57.990Z,98357.97
2022-11-25T12:24:12.245Z,98352.66
2022-11-25T12:27:25.800Z,98357.56
2022-11-25T12:34:39.995Z,98367.19
2022-11-25T12:38:08.690Z,98363.41
2022-11-25T12:41:37.221Z,98370.59
2022-11-25T12:45:06.531Z,98378.31
2022-11-25T12:52:01.887Z,98390.44
2022-11-25T12:55:25.955Z,98378.59
2022-11-25T12:59:08.790Z,98394.03
2022-11-25T13:02:58.419Z,98397.72
2022-11-25T13:06:56.157Z,98405.81
2022-11-25T13:10:49.000Z,98419.47
2022-11-25T13:14:17.360Z,98420.28
2022-11-25T13:17:58.419Z,98429.59
2022-11-25T13:21:17.323Z,98428.56
2022-11-25T13:28:38.936Z,98437.75
2022-11-25T13:32:49.136Z,98439.66
2022-11-25T13:39:51.422Z,98455.72
2022-11-25T13:43:02.553Z,98452.00
2022-11-25T13:46:42.169Z,98450.25
2022-11-25T13:50:00.002Z,98460.16
2022-11-25T13:53:10.167Z,98463.72
2022-11-25T13:56:20.565Z,98457.97
2022-11-25T13:59:44.114Z,98459.34
2022-11-25T14:02:50.862Z,98457.41
2022-11-25T14:06:13.318Z,98458.50
2022-11-25T14:09:32.489Z,98478.00
2022-11-25T14:13:11.416Z,98491.97
2022-11-25T14:16:36.357Z,98490.16
2022-11-25T14:20:06.728Z,98502.75
2022-11-25T14:23:48.391Z,98493.97
2022-11-25T14:26:58.129Z,98505.50
2022-11-25T14:30:12.226Z,98497.19
2022-11-25T14:33:26.251Z,98502.53
2022-11-25T14:36:44.387Z,98506.25
2022-11-25T14:40:01.694Z,98505.97
2022-11-25T14:43:11.580Z,98510.22
2022-11-25T14:46:22.024Z,98511.53
2022-11-25T14:49:51.962Z,98513.66
2022-11-25T14:53:12.898Z,98519.03
2022-11-25T14:56:25.876Z,98516.31
2022-11-25T14:59:40.817Z,98516.31
2022-11-25T15:03:01.762Z,98525.34
2022-11-25T15:06:09.301Z,98539.56
2022-11-25T15:09:30.377Z,98540.06
2022-11-25T15:12:48.032Z,98533.09
2022-11-25T15:16:06.325Z,98533.03
2022-11-25T15:19:22.045Z,98549.81
2022-11-25T15:22:28.795Z,98554.88
2022-11-25T15:25:35.816Z,98552.72
2022-11-25T15:28:44.023Z,98552.41
2022-11-25T15:31:53.917Z,98571.69
2022-11-25T15:35:05.960Z,98574.38
2022-11-25T15:38:21.804Z,98579.16
2022-11-25T15:41:38.668Z,98579.97
2022-11-25T15:44:53.317Z,98580.50
2022-11-25T15:48:07.184Z,98582.09
2022-11-25T15:51:30.296Z,98587.41
2022-11-25T15:54:44.241Z,98587.91
2022-11-25T15:58:00.243Z,98590.81
2022-11-25T16:01:10.259Z,98597.44
2022-11-25T16:04:24.355Z,98597.94
2022-11-25T16:07:33.373Z,98600.88
2022-11-25T16:10:57.832Z,98595.22
2022-11-25T16:14:23.124Z,98601.13
2022-11-25T16:17:35.287Z,98608.03
2022-11-25T16:20:42.925Z,98605.94
2022-11-25T16:23:53.048Z,98615.25
2022-11-25T16:27:04.788Z,98617.13
2022-11-25T16:30:23.599Z,98621.38
2022-11-25T16:33:34.884Z,98619.75
2022-11-25T16:36:45.165Z,98620.81
2022-11-25T16:39:53.430Z,98624.75
2022-11-25T16:43:01.215Z,98631.91
2022-11-25T16:46:09.416Z,98641.22
2022-11-25T16:49:19.580Z,98645.34
2022-11-25T16:52:28.537Z,98647.09
2022-11-25T16:55:38.876Z,98654.41
2022-11-25T16:58:47.299Z,98655.56
2022-11-25T17:01:55.852Z,98659.69
2022-11-25T17:05:19.154Z,98658.50
2022-11-25T17:08:27.608Z,98670.16
2022-11-25T17:11:41.908Z,98675.56
2022-11-25T17:14:53.303Z,98688.69
2022-11-25T17:18:02.781Z,98689.56
2022-11-25T17:21:16.676Z,98695.38
2022-11-25T17:24:25.110Z,98700.72
2022-11-25T17:27:34.444Z,98704.78
2022-11-25T17:30:41.119Z,98704.84
2022-11-25T17:33:52.629Z,98708.66
2022-11-25T17:37:04.720Z,98712.22
2022-11-25T17:40:23.258Z,98720.91
2022-11-25T17:43:33.157Z,98723.94
2022-11-25T17:47:07.396Z,98724.13
2022-11-25T17:50:20.189Z,98725.91
2022-11-25T17:53:44.584Z,98733.44
2022-11-25T17:56:58.493Z,98742.66
2022-11-25T18:00:10.879Z,98738.19
2022-11-25T18:03:24.617Z,98746.19
2022-11-25T18:06:39.825Z,98754.22
2022-11-25T18:09:47.033Z,98757.81
2022-11-25T18:12:56.525Z,98765.03
2022-11-25T18:16:24.483Z,98771.63
2022-11-25T18:19:30.111Z,98781.63
2022-11-25T18:22:45.338Z,98775.72
2022-11-25T18:25:54.405Z,98778.16
2022-11-25T18:28:57.386Z,98773.38
2022-11-25T18:32:00.598Z,98784.06
2022-11-25T18:35:03.338Z,98796.13
2022-11-25T18:38:06.836Z,98797.72
2022-11-25T18:41:20.932Z,98807.03
2022-11-25T18:44:26.554Z,98810.84
2022-11-25T18:47:29.246Z,98809.69
2022-11-25T18:50:32.081Z,98803.47
2022-11-25T18:53:34.805Z,98816.16
2022-11-25T18:56:41.149Z,98819.78
2022-11-25T18:59:45.174Z,98822.78
2022-11-25T19:02:47.950Z,98832.22
2022-11-25T19:05:50.907Z,98828.56
2022-11-25T19:08:53.560Z,98833.97
2022-11-25T19:11:57.778Z,98838.28
2022-11-25T19:15:00.812Z,98846.91
2022-11-25T19:18:06.640Z,98852.75
2022-11-25T19:21:12.340Z,98860.53
2022-11-25T19:24:16.907Z,98857.31
2022-11-25T19:27:24.358Z,98865.41
2022-11-25T19:30:29.827Z,98871.19
2022-11-25T19:33:35.174Z,98877.56
2022-11-25T19:36:37.961Z,98871.50
2022-11-25T19:39:40.679Z,98882.88
2022-11-25T19:42:46.036Z,98888.06
2022-11-25T19:45:48.738Z,98889.44
2022-11-25T19:48:52.346Z,98888.88
2022-11-25T19:51:56.952Z,98897.69
2022-11-25T19:54:59.652Z,98907.31
2022-11-25T19:58:03.877Z,98912.97
2022-11-25T20:01:06.693Z,98913.56
2022-11-25T20:04:16.878Z,98923.78
2022-11-25T20:07:21.549Z,98929.69
2022-11-25T20:10:26.337Z,98926.22
2022-11-25T20:13:30.374Z,98948.81
2022-11-25T20:16:36.782Z,98948.47
2022-11-25T20:19:40.047Z,98940.47
2022-11-25T20:22:46.707Z,98953.13
2022-11-25T20:25:50.727Z,98953.34
2022-11-25T20:28:54.797Z,98957.31
2022-11-25T20:31:57.822Z,98971.69
2022-11-25T20:35:01.142Z,98984.84
2022-11-25T20:38:03.927Z,98982.53
2022-11-25T20:41:07.679Z,98982.41
2022-11-25T20:44:14.366Z,98986.59
2022-11-25T20:47:18.933Z,98996.34
2022-11-25T20:50:22.727Z,98989.25
2022-11-25T20:53:25.404Z,98992.66
2022-11-25T20:56:29.128Z,99001.44
2022-11-25T20:59:34.378Z,99001.69
2022-11-25T21:02:37.166Z,99011.31
2022-11-25T21:05:40.109Z,99012.09
2022-11-25T21:08:45.364Z,99017.97
2022-11-25T21:11:48.245Z,99025.03
2022-11-25T21:14:52.274Z,99026.41
2022-11-25T21:17:54.985Z,99028.25
2022-11-25T21:20:58.571Z,99023.75
2022-11-25T21:24:06.762Z,99028.38
2022-11-25T21:27:14.807Z,99032.78
2022-11-25T21:30:20.690Z,99034.78
2022-11-25T21:33:23.611Z,99032.03
2022-11-25T21:36:29.772Z,99033.78
2022-11-25T21:39:34.808Z,99039.69
2022-11-25T21:42:38.056Z,99041.09
2022-11-25T21:45:42.051Z,99049.91
2022-11-25T21:48:45.175Z,99047.31
2022-11-25T21:51:47.930Z,99048.03
2022-11-25T21:54:50.604Z,99044.91
2022-11-25T21:57:53.372Z,99057.78
2022-11-25T22:00:59.461Z,99069.00
2022-11-25T22:04:02.292Z,99066.34
2022-11-25T22:07:04.892Z,99070.75
2022-11-25T22:10:09.090Z,99068.78
2022-11-25T22:13:16.476Z,99081.03
2022-11-25T22:16:28.880Z,99080.47
2022-11-25T22:19:32.114Z,99082.31
2022-11-25T22:22:34.908Z,99078.69
2022-11-25T22:25:37.611Z,99084.25
2022-11-25T22:28:40.762Z,99083.25
2022-11-25T22:31:45.004Z,99093.66
2022-11-25T22:34:48.113Z,99087.28
2022-11-25T22:37:55.202Z,99090.78
2022-11-25T22:41:01.656Z,99092.38
2022-11-25T22:44:04.611Z,99104.34
2022-11-25T22:47:16.898Z,99107.34
2022-11-25T22:50:23.004Z,99108.97
2022-11-25T22:53:26.242Z,99112.03
2022-11-25T22:56:29.043Z,99117.47
2022-11-25T22:59:31.913Z,99114.34
2022-11-25T23:02:37.055Z,99127.47
2022-11-25T23:05:40.985Z,99122.72
2022-11-25T23:08:43.684Z,99128.50
2022-11-25T23:11:47.024Z,99124.78
2022-11-25T23:14:49.876Z,99123.16
2022-11-25T23:17:57.028Z,99124.22
2022-11-25T23:20:59.831Z,99124.78
2022-11-25T23:24:12.104Z,99122.94
2022-11-25T23:27:18.902Z,99133.38
2022-11-25T23:30:26.714Z,99129.06
2022-11-25T23:33:39.016Z,99128.72
2022-11-25T23:37:00.215Z,99135.13
2022-11-25T23:40:09.873Z,99126.72
2022-11-25T23:43:16.691Z,99138.56
2022-11-25T23:46:26.198Z,99123.03
2022-11-25T23:49:36.244Z,99126.13
2022-11-25T23:52:43.054Z,99132.38
2022-11-25T23:55:51.859Z,99129.81
2022-11-25T23:58:57.207Z,99139.06
